Milwaukee, Wisconsin
Traffic Map
Current Weather Conditions
Milwaukee, Wisconsin
Few Clouds
Few Clouds
63°
Feels Like: 63°
Wind Chill: 63° Ceiling: Unl
Heat Index: 63° Visibility: 10mi
Dew Point: 60° Wind: 3mph
Humidity: 90% Direction: 330° (NNW)
Pressure: 29.91in Gusts: 0mph
Raw Report DataKMKE 010552Z 33003KT 10SM FEW006 FEW045 17/16 A2991 RMK AO2 SLP123 60086 T01720156 10244 20167 402720156 50000 $
Traffic Incident Summary
Active as of:
Severity:
Category:
InformationThere was an issue retrieving the traffic information for this location. Please try a different location or try again shortly.
Advertisements
Track Severe Weather on mobile